Highwood, Montana
Current Conditions -  °F | °C
As of 8:30 AM on Friday 26 Dec 2014 (Local Time) from KGFA Reporting Station
Snow Showers Snow Showers  
Wind Chill:   Ceiling: 1000
Heat Index: 21°   Visibility: 8mi
Dew Point: 18°   Wind: 12mph
Humidity: 86%   Direction: 340°NNW
Pressure: 30.1"   Gusts: NA
Location:  47.58°N, 110.79°W
Report Text: KGFA 261530Z AUTO 34010KT 8SM -SHSN OVC010 M06/M08 A3010 RMK AO2 SHSNE23SHSNB30
Loading
Personal Weather Stations






























Interactive Weather Map New forecast layout! Learn more

10-Day Weather Forecast

Advertisements
Track Severe Weather on mobile